createdAt,value
2022-11-26T00:04:20.832Z,64.50
2022-11-26T00:09:25.289Z,68.30
2022-11-26T00:14:28.446Z,64.20
2022-11-26T00:19:32.458Z,60.70
2022-11-26T00:24:36.507Z,64.10
2022-11-26T00:29:42.012Z,61.80
2022-11-26T00:34:45.909Z,61.00
2022-11-26T00:39:50.101Z,68.30
2022-11-26T00:44:53.611Z,68.70
2022-11-26T00:49:57.391Z,70.50
2022-11-26T00:55:16.261Z,70.30
2022-11-26T01:00:24.134Z,72.30
2022-11-26T01:05:33.852Z,73.90
2022-11-26T01:10:37.546Z,67.20
2022-11-26T01:15:41.677Z,65.50
2022-11-26T01:20:45.423Z,67.40
2022-11-26T01:25:49.877Z,57.00
2022-11-26T01:30:53.389Z,56.20
2022-11-26T01:35:57.042Z,62.80
2022-11-26T01:41:16.756Z,54.80
2022-11-26T01:46:22.842Z,56.30
2022-11-26T01:51:28.525Z,57.30
2022-11-26T01:56:41.367Z,57.70
2022-11-26T02:01:45.372Z,61.60
2022-11-26T02:06:53.392Z,64.50
2022-11-26T02:11:57.681Z,64.00
2022-11-26T02:17:10.770Z,66.30
2022-11-26T02:22:36.338Z,68.50
2022-11-26T02:27:52.642Z,63.30
2022-11-26T02:33:12.154Z,63.50
2022-11-26T02:38:33.567Z,61.90
2022-11-26T02:43:38.673Z,59.70
2022-11-26T02:48:47.440Z,67.70
2022-11-26T02:53:52.857Z,62.80
2022-11-26T02:58:57.436Z,63.20
2022-11-26T03:04:07.837Z,60.70
2022-11-26T03:09:11.312Z,63.20
2022-11-26T03:14:15.326Z,61.50
2022-11-26T03:19:18.829Z,63.60
2022-11-26T03:24:22.385Z,65.20
2022-11-26T03:29:26.059Z,59.00
2022-11-26T03:34:29.805Z,56.10
2022-11-26T03:39:33.112Z,60.40
2022-11-26T03:44:37.268Z,55.80
2022-11-26T03:49:41.168Z,55.20
2022-11-26T03:54:44.786Z,56.40
2022-11-26T04:05:08.282Z,48.50
2022-11-26T04:10:17.056Z,51.10
2022-11-26T04:15:23.322Z,48.90
2022-11-26T04:20:26.761Z,49.80
2022-11-26T04:25:30.065Z,49.50
2022-11-26T04:30:34.643Z,47.20
2022-11-26T04:35:38.290Z,46.70
2022-11-26T04:40:46.235Z,45.60
2022-11-26T04:45:49.846Z,46.10
2022-11-26T04:50:53.685Z,45.20
2022-11-26T04:55:57.918Z,44.20
2022-11-26T05:01:03.747Z,45.40
2022-11-26T05:06:11.932Z,41.80
2022-11-26T05:11:15.514Z,43.90
2022-11-26T05:16:19.091Z,46.70
2022-11-26T05:21:22.831Z,116.80
2022-11-26T05:26:26.646Z,49.90
2022-11-26T05:31:31.305Z,93.30
2022-11-26T05:36:35.001Z,47.40
2022-11-26T05:41:38.608Z,43.60
2022-11-26T05:46:43.737Z,50.00
2022-11-26T05:51:47.118Z,46.60
2022-11-26T05:56:54.274Z,54.70
2022-11-26T06:02:02.218Z,54.40
2022-11-26T06:07:05.617Z,52.70
2022-11-26T06:12:09.135Z,53.30
2022-11-26T06:17:12.855Z,47.60
2022-11-26T06:22:16.533Z,147.20
2022-11-26T06:27:43.336Z,51.80
2022-11-26T06:32:49.945Z,47.90
2022-11-26T06:37:53.413Z,43.80
2022-11-26T06:42:57.518Z,46.00
2022-11-26T06:48:01.369Z,48.40
2022-11-26T06:53:08.273Z,50.20
2022-11-26T06:58:11.775Z,44.70
2022-11-26T07:03:18.609Z,93.20
2022-11-26T07:08:25.709Z,47.50
2022-11-26T07:13:29.231Z,46.30
2022-11-26T07:18:32.831Z,43.60
2022-11-26T07:23:36.994Z,40.30
2022-11-26T07:28:45.452Z,42.70
2022-11-26T07:33:59.042Z,42.20
2022-11-26T07:39:03.626Z,39.40
2022-11-26T07:44:07.118Z,45.40
2022-11-26T07:49:10.709Z,141.30
2022-11-26T07:54:17.094Z,44.80
2022-11-26T07:59:24.462Z,41.70
2022-11-26T08:04:37.563Z,45.30
2022-11-26T08:09:41.154Z,41.20
2022-11-26T08:14:44.966Z,43.80
2022-11-26T08:19:50.834Z,42.50
2022-11-26T08:24:54.436Z,43.00
2022-11-26T08:30:07.982Z,51.50
2022-11-26T08:35:13.439Z,47.30
2022-11-26T08:45:24.845Z,43.10
2022-11-26T08:50:28.407Z,43.40
2022-11-26T08:55:58.769Z,43.20
2022-11-26T09:00:56.036Z,115.90
2022-11-26T09:06:03.629Z,53.10
2022-11-26T09:11:06.855Z,42.10
2022-11-26T09:16:09.994Z,41.90
2022-11-26T09:21:13.733Z,42.80
2022-11-26T09:26:18.434Z,45.00
2022-11-26T09:31:22.136Z,42.50
2022-11-26T09:36:29.032Z,50.20
2022-11-26T09:41:44.729Z,53.20
2022-11-26T09:47:15.602Z,44.70
2022-11-26T09:52:22.737Z,44.40
2022-11-26T09:57:49.240Z,45.40
2022-11-26T10:02:54.063Z,48.40
2022-11-26T10:08:23.264Z,48.00
2022-11-26T10:13:38.223Z,40.90
2022-11-26T10:18:54.872Z,43.70
2022-11-26T10:24:04.855Z,40.20
2022-11-26T10:29:33.530Z,38.60
2022-11-26T10:34:48.422Z,42.80
2022-11-26T10:40:24.171Z,40.30
2022-11-26T10:45:41.200Z,41.60
2022-11-26T10:50:56.079Z,39.60
2022-11-26T10:56:01.572Z,44.60
2022-11-26T11:01:06.416Z,40.00
2022-11-26T11:06:12.500Z,37.70
2022-11-26T11:11:22.418Z,37.90
2022-11-26T11:16:27.947Z,42.80
2022-11-26T11:21:34.958Z,36.50
2022-11-26T11:26:44.805Z,37.50
2022-11-26T11:31:48.370Z,39.20
2022-11-26T11:37:07.879Z,41.60
2022-11-26T11:42:29.479Z,36.40
2022-11-26T11:47:45.072Z,38.50
2022-11-26T11:52:48.020Z,32.90
2022-11-26T11:58:09.517Z,33.00
2022-11-26T12:03:14.949Z,32.30
2022-11-26T12:08:33.157Z,34.90
2022-11-26T12:13:49.065Z,33.60
2022-11-26T12:24:05.084Z,32.60
2022-11-26T12:29:26.935Z,30.70
2022-11-26T12:34:32.885Z,31.50
2022-11-26T12:39:35.888Z,29.20
2022-11-26T12:44:44.907Z,28.30
2022-11-26T12:50:15.847Z,29.40
2022-11-26T12:55:52.807Z,30.80
2022-11-26T13:00:57.062Z,30.00
2022-11-26T13:06:35.265Z,29.30
2022-11-26T13:11:56.022Z,29.40
2022-11-26T13:17:08.258Z,29.20
2022-11-26T13:22:23.039Z,28.50
2022-11-26T13:27:57.986Z,30.50
2022-11-26T13:33:47.221Z,29.20
2022-11-26T13:39:15.496Z,38.30
2022-11-26T13:44:43.528Z,31.70
2022-11-26T13:49:55.511Z,33.50
2022-11-26T13:55:19.648Z,33.20
2022-11-26T14:00:31.708Z,33.20
2022-11-26T14:05:49.787Z,33.30
2022-11-26T14:10:52.864Z,36.50
2022-11-26T14:15:57.586Z,32.70
2022-11-26T14:21:00.797Z,32.00
2022-11-26T14:26:04.179Z,36.80
2022-11-26T14:31:28.232Z,34.80
2022-11-26T14:36:31.749Z,34.20
2022-11-26T14:41:59.103Z,36.40
2022-11-26T14:47:27.621Z,32.60
2022-11-26T14:52:39.250Z,32.10
2022-11-26T14:57:46.645Z,33.80
2022-11-26T15:02:50.338Z,35.90
2022-11-26T15:07:58.139Z,35.30
2022-11-26T15:13:10.234Z,38.70
2022-11-26T15:18:16.078Z,41.00
2022-11-26T15:28:26.485Z,41.20
2022-11-26T15:33:32.048Z,40.80
2022-11-26T15:38:37.562Z,42.10
2022-11-26T15:43:44.876Z,43.80
2022-11-26T15:48:55.911Z,42.20
2022-11-26T15:53:59.319Z,40.40
2022-11-26T15:59:07.443Z,39.50
2022-11-26T16:04:33.048Z,40.80
2022-11-26T16:09:36.066Z,41.70
2022-11-26T16:14:40.054Z,45.20
2022-11-26T16:19:53.256Z,41.50
2022-11-26T16:25:05.864Z,44.00
2022-11-26T16:30:15.893Z,41.70
2022-11-26T16:35:44.321Z,44.90
2022-11-26T16:40:42.548Z,42.30
2022-11-26T16:45:46.907Z,41.10
2022-11-26T16:50:50.404Z,39.90
2022-11-26T16:55:54.061Z,37.60
2022-11-26T17:00:57.819Z,42.70
2022-11-26T17:06:06.939Z,39.70
2022-11-26T17:11:13.975Z,34.50
2022-11-26T17:16:19.888Z,32.50
2022-11-26T17:21:23.941Z,36.10
2022-11-26T17:26:27.237Z,28.20
2022-11-26T17:31:30.945Z,29.20
2022-11-26T17:36:37.022Z,26.10
2022-11-26T17:41:40.718Z,25.20
2022-11-26T17:47:09.079Z,27.60
2022-11-26T17:52:07.771Z,27.30
2022-11-26T17:57:16.071Z,24.40
2022-11-26T18:02:19.493Z,24.50
2022-11-26T18:07:23.210Z,22.50
2022-11-26T18:12:28.104Z,19.10
2022-11-26T18:17:31.607Z,23.40
2022-11-26T18:22:35.097Z,25.70
2022-11-26T18:27:38.257Z,20.50
2022-11-26T18:32:41.641Z,23.40
2022-11-26T18:37:44.844Z,22.40
2022-11-26T18:42:53.006Z,21.00
2022-11-26T18:47:56.462Z,21.80
2022-11-26T18:52:59.796Z,23.80
2022-11-26T18:58:07.821Z,22.10
2022-11-26T19:03:13.351Z,22.80
2022-11-26T19:08:16.699Z,23.10
2022-11-26T19:13:20.077Z,33.90
2022-11-26T19:18:26.289Z,24.80
2022-11-26T19:23:29.876Z,26.30
2022-11-26T19:28:33.891Z,25.20
2022-11-26T19:33:38.003Z,27.00
2022-11-26T19:38:41.348Z,30.50
2022-11-26T19:43:44.685Z,30.90
2022-11-26T19:48:49.781Z,24.40
2022-11-26T19:53:55.064Z,24.70
2022-11-26T19:59:00.792Z,26.60
2022-11-26T20:04:08.670Z,28.90
2022-11-26T20:09:15.805Z,28.40
2022-11-26T20:14:22.719Z,30.50
2022-11-26T20:19:30.621Z,29.70
2022-11-26T20:24:36.421Z,29.90
2022-11-26T20:29:39.642Z,34.50
2022-11-26T20:34:45.115Z,33.50
2022-11-26T20:40:01.659Z,32.00
2022-11-26T20:45:45.898Z,36.60
2022-11-26T21:03:04.780Z,31.50
2022-11-26T21:08:11.333Z,30.60
2022-11-26T21:13:16.921Z,28.80
2022-11-26T21:18:20.713Z,27.70
2022-11-26T21:23:24.219Z,24.60
2022-11-26T21:28:27.587Z,25.20
2022-11-26T21:33:30.960Z,26.40
2022-11-26T21:38:34.560Z,25.70
2022-11-26T21:43:38.793Z,28.80
2022-11-26T21:48:42.233Z,26.10
2022-11-26T21:53:46.807Z,20.70
2022-11-26T21:58:54.143Z,26.60
2022-11-26T22:04:04.564Z,23.20
2022-11-26T22:09:08.259Z,24.60
2022-11-26T22:14:15.045Z,24.10
2022-11-26T22:19:18.295Z,21.40
2022-11-26T22:24:21.572Z,21.70
2022-11-26T22:29:25.081Z,25.40
2022-11-26T22:34:29.400Z,20.80
2022-11-26T22:39:32.836Z,19.80
2022-11-26T22:44:36.660Z,19.10
2022-11-26T22:49:40.734Z,20.20
2022-11-26T22:54:44.495Z,19.20
2022-11-26T22:59:48.011Z,20.10
2022-11-26T23:04:52.898Z,19.00
2022-11-26T23:09:58.942Z,17.10
2022-11-26T23:15:03.293Z,18.00
2022-11-26T23:20:08.015Z,15.00
2022-11-26T23:25:12.031Z,14.70
2022-11-26T23:30:16.173Z,14.70
2022-11-26T23:35:20.344Z,15.00
2022-11-26T23:40:24.013Z,14.50
2022-11-26T23:45:28.904Z,16.20
2022-11-26T23:50:35.108Z,13.40
2022-11-26T23:55:38.362Z,11.50
